createdAt,value
2023-01-06T00:01:44.305Z,55.37
2023-01-06T00:03:52.051Z,56.54
2023-01-06T00:05:57.085Z,56.25
2023-01-06T00:07:59.277Z,57.03
2023-01-06T00:10:00.804Z,57.65
2023-01-06T00:12:04.205Z,58.16
2023-01-06T00:14:05.777Z,58.75
2023-01-06T00:16:12.088Z,58.14
2023-01-06T00:18:13.703Z,58.52
2023-01-06T00:20:15.627Z,57.91
2023-01-06T00:22:17.414Z,59.08
2023-01-06T00:24:18.972Z,59.62
2023-01-06T00:26:20.704Z,59.45
2023-01-06T00:28:22.285Z,59.47
2023-01-06T00:30:23.858Z,60.07
2023-01-06T00:32:25.469Z,60.27
2023-01-06T00:34:27.517Z,60.52
2023-01-06T00:36:29.083Z,60.75
2023-01-06T00:38:31.161Z,59.66
2023-01-06T00:40:32.784Z,59.77
2023-01-06T00:42:34.312Z,58.73
2023-01-06T00:44:36.750Z,58.62
2023-01-06T00:46:38.342Z,58.22
2023-01-06T00:48:43.129Z,58.49
2023-01-06T00:50:48.832Z,57.77
2023-01-06T00:52:50.490Z,58.14
2023-01-06T00:54:52.193Z,57.91
2023-01-06T00:56:54.328Z,57.61
2023-01-06T00:58:55.892Z,57.38
2023-01-06T01:00:57.497Z,57.80
2023-01-06T01:02:59.033Z,58.43
2023-01-06T01:05:00.733Z,58.10
2023-01-06T01:07:02.353Z,58.58
2023-01-06T01:09:04.439Z,58.42
2023-01-06T01:11:09.389Z,58.56
2023-01-06T01:13:10.918Z,58.19
2023-01-06T01:15:12.676Z,58.91
2023-01-06T01:17:15.581Z,58.53
2023-01-06T01:19:17.456Z,59.19
2023-01-06T01:21:18.999Z,59.53
2023-01-06T01:23:20.602Z,59.10
2023-01-06T01:25:22.228Z,59.32
2023-01-06T01:27:24.161Z,59.62
2023-01-06T01:29:25.772Z,59.57
2023-01-06T01:31:27.450Z,58.98
2023-01-06T01:33:29.698Z,59.22
2023-01-06T01:35:31.257Z,59.50
2023-01-06T01:37:33.046Z,59.35
2023-01-06T01:39:34.556Z,58.61
2023-01-06T01:41:36.140Z,58.91
2023-01-06T01:43:48.066Z,59.29
2023-01-06T01:45:50.639Z,59.09
2023-01-06T01:47:56.321Z,58.76
2023-01-06T01:50:00.532Z,58.60
2023-01-06T01:52:02.023Z,58.62
2023-01-06T01:54:04.387Z,58.58
2023-01-06T01:56:07.415Z,58.96
2023-01-06T01:58:20.010Z,58.91
2023-01-06T02:00:21.611Z,58.54
2023-01-06T02:02:23.297Z,58.05
2023-01-06T02:04:25.440Z,58.32
2023-01-06T02:06:27.089Z,58.08
2023-01-06T02:08:32.139Z,58.02
2023-01-06T02:10:33.723Z,58.38
2023-01-06T02:12:35.327Z,57.87
2023-01-06T02:14:36.883Z,58.53
2023-01-06T02:16:57.430Z,58.17
2023-01-06T02:19:19.683Z,57.66
2023-01-06T02:21:21.288Z,57.50
2023-01-06T02:23:36.652Z,57.48
2023-01-06T02:25:57.087Z,57.48
2023-01-06T02:28:07.496Z,57.19
2023-01-06T02:30:27.604Z,57.50
2023-01-06T02:32:32.521Z,57.25
2023-01-06T02:34:41.952Z,57.18
2023-01-06T02:36:45.148Z,57.60
2023-01-06T02:39:13.030Z,58.02
2023-01-06T02:41:20.767Z,57.29
2023-01-06T02:43:30.128Z,57.93
2023-01-06T02:45:50.327Z,58.07
2023-01-06T02:47:58.042Z,58.01
2023-01-06T02:49:59.578Z,57.83
2023-01-06T02:52:02.913Z,58.19
2023-01-06T02:54:13.634Z,57.71
2023-01-06T02:56:15.181Z,57.41
2023-01-06T02:58:25.947Z,57.36
2023-01-06T03:00:37.465Z,57.13
2023-01-06T03:02:41.542Z,57.52
2023-01-06T03:04:43.424Z,57.22
2023-01-06T03:06:45.924Z,57.33
2023-01-06T03:08:47.927Z,57.35
2023-01-06T03:10:49.611Z,56.74
2023-01-06T03:13:12.363Z,56.83
2023-01-06T03:15:13.981Z,57.42
2023-01-06T03:17:15.603Z,57.31
2023-01-06T03:19:17.179Z,56.74
2023-01-06T03:21:20.237Z,57.08
2023-01-06T03:23:21.854Z,57.22
2023-01-06T03:25:23.372Z,57.03
2023-01-06T03:27:25.271Z,56.86
2023-01-06T03:29:26.910Z,56.50
2023-01-06T03:31:40.550Z,57.09
2023-01-06T03:33:52.100Z,56.58
2023-01-06T03:35:56.634Z,56.43
2023-01-06T03:38:16.603Z,57.45
2023-01-06T03:40:24.087Z,56.80
2023-01-06T03:42:57.999Z,57.38
2023-01-06T03:45:19.935Z,57.06
2023-01-06T03:47:25.680Z,57.31
2023-01-06T03:49:31.591Z,56.70
2023-01-06T03:51:33.136Z,57.86
2023-01-06T03:53:34.720Z,57.42
2023-01-06T03:55:36.324Z,57.40
2023-01-06T03:57:38.461Z,56.81
2023-01-06T03:59:44.140Z,57.71
2023-01-06T04:01:45.747Z,57.81
2023-01-06T04:03:47.477Z,57.35
2023-01-06T04:05:49.248Z,56.73
2023-01-06T04:07:50.867Z,57.19
2023-01-06T04:09:52.515Z,56.67
2023-01-06T04:12:12.829Z,56.62
2023-01-06T04:14:14.360Z,56.48
2023-01-06T04:16:16.007Z,57.20
2023-01-06T04:18:17.795Z,57.07
2023-01-06T04:20:25.817Z,57.35
2023-01-06T04:22:27.678Z,56.84
2023-01-06T04:24:29.484Z,56.67
2023-01-06T04:26:31.080Z,56.95
2023-01-06T04:28:32.721Z,56.73
2023-01-06T04:30:34.561Z,56.59
2023-01-06T04:32:36.062Z,57.39
2023-01-06T04:34:37.589Z,56.88
2023-01-06T04:36:39.263Z,57.64
2023-01-06T04:38:40.873Z,56.56
2023-01-06T04:40:42.882Z,57.28
2023-01-06T04:43:03.196Z,57.00
2023-01-06T04:45:04.934Z,57.63
2023-01-06T04:47:06.640Z,57.41
2023-01-06T04:49:08.433Z,57.20
2023-01-06T04:51:10.458Z,56.81
2023-01-06T04:53:12.392Z,56.95
2023-01-06T04:55:14.026Z,56.76
2023-01-06T04:57:15.690Z,56.84
2023-01-06T04:59:17.335Z,56.35
2023-01-06T05:01:19.085Z,57.22
2023-01-06T05:03:20.726Z,55.99
2023-01-06T05:05:22.274Z,56.85
2023-01-06T05:07:23.752Z,56.67
2023-01-06T05:09:25.302Z,57.31
2023-01-06T05:11:27.355Z,56.92
2023-01-06T05:13:29.249Z,56.34
2023-01-06T05:15:30.790Z,57.43
2023-01-06T05:17:32.425Z,56.39
2023-01-06T05:19:33.947Z,56.79
2023-01-06T05:21:35.468Z,56.96
2023-01-06T05:23:37.634Z,57.00
2023-01-06T05:25:39.247Z,57.56
2023-01-06T05:27:40.841Z,57.11
2023-01-06T05:29:42.429Z,57.29
2023-01-06T05:31:44.015Z,57.28
2023-01-06T05:33:45.743Z,57.48
2023-01-06T05:35:47.266Z,57.18
2023-01-06T05:37:48.858Z,57.19
2023-01-06T05:39:50.479Z,57.08
2023-01-06T05:41:52.051Z,56.93
2023-01-06T05:43:53.650Z,56.90
2023-01-06T05:45:55.557Z,57.10
2023-01-06T05:47:58.092Z,56.29
2023-01-06T05:49:59.625Z,56.80
2023-01-06T05:52:01.466Z,57.05
2023-01-06T05:54:06.994Z,56.41
2023-01-06T05:56:09.762Z,56.79
2023-01-06T05:58:11.289Z,55.89
2023-01-06T06:00:13.081Z,56.55
2023-01-06T06:02:14.596Z,56.10
2023-01-06T06:04:16.313Z,56.15
2023-01-06T06:06:18.128Z,55.74
2023-01-06T06:08:19.740Z,56.03
2023-01-06T06:10:21.666Z,55.79
2023-01-06T06:12:23.270Z,55.80
2023-01-06T06:14:26.624Z,54.93
2023-01-06T06:16:28.549Z,55.26
2023-01-06T06:18:30.349Z,55.01
2023-01-06T06:20:31.932Z,54.92
2023-01-06T06:22:33.431Z,54.93
2023-01-06T06:24:35.185Z,54.36
2023-01-06T06:26:36.855Z,54.19
2023-01-06T06:28:38.811Z,51.81
2023-01-06T06:30:40.399Z,51.34
2023-01-06T06:32:41.927Z,51.07
2023-01-06T06:34:43.442Z,51.65
2023-01-06T06:36:45.016Z,51.43
2023-01-06T06:38:47.336Z,51.04
2023-01-06T06:40:48.884Z,50.54
2023-01-06T06:42:53.584Z,49.48
2023-01-06T06:44:55.103Z,48.67
2023-01-06T06:46:56.662Z,48.59
2023-01-06T06:48:58.261Z,48.70
2023-01-06T06:51:04.265Z,49.45
2023-01-06T06:53:06.277Z,49.67
2023-01-06T06:55:08.135Z,49.89
2023-01-06T06:57:09.646Z,50.55
2023-01-06T06:59:11.232Z,50.68
2023-01-06T07:01:13.943Z,50.77
2023-01-06T07:03:15.603Z,51.05
2023-01-06T07:05:17.933Z,51.02
2023-01-06T07:07:19.504Z,50.96
2023-01-06T07:09:21.025Z,51.05
2023-01-06T07:11:22.744Z,51.71
2023-01-06T07:13:24.384Z,51.25
2023-01-06T07:15:25.921Z,51.15
2023-01-06T07:17:27.999Z,50.61
2023-01-06T07:19:29.594Z,50.79
2023-01-06T07:21:31.117Z,50.66
2023-01-06T07:23:32.844Z,51.51
2023-01-06T07:25:34.416Z,51.09
2023-01-06T07:27:36.370Z,51.35
2023-01-06T07:29:37.876Z,51.52
2023-01-06T07:31:39.562Z,51.01
2023-01-06T07:33:41.155Z,51.43
2023-01-06T07:35:42.699Z,51.37
2023-01-06T07:37:47.372Z,51.09
2023-01-06T07:39:48.877Z,51.15
2023-01-06T07:41:50.383Z,51.09
2023-01-06T07:43:52.571Z,50.90
2023-01-06T07:45:54.301Z,51.04
2023-01-06T07:47:56.492Z,51.02
2023-01-06T07:49:58.295Z,51.07
2023-01-06T07:51:59.848Z,51.10
2023-01-06T07:54:01.774Z,50.92
2023-01-06T07:56:03.400Z,50.24
2023-01-06T07:58:08.323Z,50.78
2023-01-06T08:00:10.227Z,50.81
2023-01-06T08:02:12.132Z,50.53
2023-01-06T08:04:13.951Z,50.55
2023-01-06T08:06:15.593Z,51.13
2023-01-06T08:08:17.391Z,51.65
2023-01-06T08:10:18.962Z,51.44
2023-01-06T08:12:20.650Z,51.35
2023-01-06T08:14:25.424Z,51.29
2023-01-06T08:16:27.052Z,51.46
2023-01-06T08:18:28.752Z,51.04
2023-01-06T08:20:30.395Z,51.30
2023-01-06T08:22:31.969Z,51.31
2023-01-06T08:24:33.588Z,50.78
2023-01-06T08:26:35.152Z,51.29
2023-01-06T08:28:36.846Z,51.26
2023-01-06T08:30:40.201Z,52.12
2023-01-06T08:32:41.919Z,51.65
2023-01-06T08:34:44.030Z,51.64
2023-01-06T08:36:46.048Z,51.74
2023-01-06T08:38:48.037Z,52.13
2023-01-06T08:40:51.782Z,51.13
2023-01-06T08:42:53.867Z,51.47
2023-01-06T08:44:55.510Z,50.87
2023-01-06T08:46:57.434Z,50.99
2023-01-06T08:48:59.036Z,50.95
2023-01-06T08:51:08.289Z,50.89
2023-01-06T08:53:10.393Z,51.32
2023-01-06T08:55:11.989Z,51.00
2023-01-06T08:57:16.064Z,50.07
2023-01-06T08:59:17.691Z,49.26
2023-01-06T09:01:20.279Z,49.33
2023-01-06T09:03:22.462Z,50.38
2023-01-06T09:05:24.051Z,50.45
2023-01-06T09:07:25.594Z,49.17
2023-01-06T09:09:27.499Z,49.27
2023-01-06T09:11:29.069Z,48.87
2023-01-06T09:13:30.598Z,48.48
2023-01-06T09:15:32.250Z,47.86
2023-01-06T09:17:33.829Z,48.34
2023-01-06T09:19:35.560Z,48.07
2023-01-06T09:21:37.448Z,48.58
2023-01-06T09:23:39.337Z,48.38
2023-01-06T09:25:40.829Z,48.06
2023-01-06T09:27:42.326Z,48.49
2023-01-06T09:29:43.990Z,47.94
2023-01-06T09:31:45.495Z,47.67
2023-01-06T09:33:47.087Z,47.72
2023-01-06T09:35:48.670Z,46.88
2023-01-06T09:37:50.330Z,46.99
2023-01-06T09:39:51.915Z,46.89
2023-01-06T09:41:53.511Z,46.69
2023-01-06T09:44:13.674Z,46.36
2023-01-06T09:46:16.737Z,46.14
2023-01-06T09:48:19.321Z,45.44
2023-01-06T09:50:30.219Z,45.54
2023-01-06T09:52:40.239Z,45.06
2023-01-06T09:55:09.208Z,45.22
2023-01-06T09:57:15.975Z,45.29
2023-01-06T09:59:20.232Z,44.88
2023-01-06T10:01:24.087Z,45.28
2023-01-06T10:03:25.969Z,44.71
2023-01-06T10:05:29.320Z,44.72
2023-01-06T10:07:33.928Z,44.73
2023-01-06T10:10:03.347Z,44.50
2023-01-06T10:12:07.833Z,44.45
2023-01-06T10:14:17.560Z,44.63
2023-01-06T10:16:23.252Z,44.60
2023-01-06T10:18:27.831Z,45.46
2023-01-06T10:20:50.531Z,45.92
2023-01-06T10:22:52.373Z,46.32
2023-01-06T10:24:55.580Z,46.28
2023-01-06T10:26:58.422Z,45.73
2023-01-06T10:29:15.829Z,45.32
2023-01-06T10:31:17.767Z,45.37
2023-01-06T10:33:19.513Z,46.93
2023-01-06T10:35:21.963Z,46.86
2023-01-06T10:37:23.982Z,46.56
2023-01-06T10:39:25.726Z,46.74
2023-01-06T10:41:27.267Z,47.11
2023-01-06T10:43:29.490Z,48.46
2023-01-06T10:45:41.189Z,47.96
2023-01-06T10:47:43.138Z,47.68
2023-01-06T10:49:44.690Z,46.94
2023-01-06T10:51:51.796Z,46.90
2023-01-06T10:53:53.860Z,47.03
2023-01-06T10:55:55.360Z,47.01
2023-01-06T10:57:57.379Z,46.46
2023-01-06T11:00:09.098Z,46.59
2023-01-06T11:02:10.657Z,46.97
2023-01-06T11:04:13.173Z,47.47
2023-01-06T11:06:27.915Z,47.75
2023-01-06T11:08:29.462Z,48.06
2023-01-06T11:10:35.103Z,47.46
2023-01-06T11:12:36.754Z,47.46
2023-01-06T11:14:38.542Z,47.08
2023-01-06T11:16:40.154Z,46.96
2023-01-06T11:18:42.108Z,46.51
2023-01-06T11:20:43.632Z,45.86
2023-01-06T11:22:45.175Z,45.82
2023-01-06T11:24:53.973Z,45.55
2023-01-06T11:26:55.483Z,45.27
2023-01-06T11:28:57.111Z,44.84
2023-01-06T11:31:00.004Z,44.50
2023-01-06T11:33:01.582Z,44.44
2023-01-06T11:35:03.961Z,44.55
2023-01-06T11:37:06.215Z,44.56
2023-01-06T11:39:14.988Z,45.01
2023-01-06T11:41:22.141Z,45.66
2023-01-06T11:43:25.745Z,45.47
2023-01-06T11:45:31.539Z,45.59
2023-01-06T11:47:33.071Z,45.82
2023-01-06T11:49:36.260Z,46.07
2023-01-06T11:51:43.678Z,46.02
2023-01-06T11:53:55.674Z,45.97
2023-01-06T11:56:18.227Z,45.98
2023-01-06T11:58:21.531Z,46.56
2023-01-06T12:00:23.059Z,46.47
2023-01-06T12:02:26.222Z,46.27
2023-01-06T12:04:30.252Z,45.94
2023-01-06T12:06:36.381Z,45.73
2023-01-06T12:08:40.382Z,45.56
2023-01-06T12:10:41.925Z,45.66
2023-01-06T12:12:43.657Z,45.67
2023-01-06T12:14:45.248Z,45.57
2023-01-06T12:16:49.554Z,45.79
2023-01-06T12:18:51.213Z,45.41
2023-01-06T12:20:52.950Z,45.32
2023-01-06T12:22:54.656Z,45.40
2023-01-06T12:24:56.585Z,45.28
2023-01-06T12:26:58.201Z,45.13
2023-01-06T12:28:59.804Z,45.22
2023-01-06T12:31:03.861Z,45.08
2023-01-06T12:33:13.873Z,45.38
2023-01-06T12:35:17.062Z,45.48
2023-01-06T12:37:32.394Z,45.65
2023-01-06T12:39:45.901Z,45.76
2023-01-06T12:41:47.432Z,45.88
2023-01-06T12:44:09.235Z,46.22
2023-01-06T12:46:15.927Z,46.10
2023-01-06T12:48:29.368Z,45.79
2023-01-06T12:50:38.875Z,45.62
2023-01-06T12:52:41.708Z,45.63
2023-01-06T12:54:43.263Z,46.13
2023-01-06T12:56:53.966Z,46.27
2023-01-06T12:59:11.405Z,46.47
2023-01-06T13:01:15.958Z,46.82
2023-01-06T13:03:37.825Z,47.26
2023-01-06T13:06:02.466Z,46.92
2023-01-06T13:08:12.170Z,47.19
2023-01-06T13:10:28.989Z,46.96
2023-01-06T13:12:33.704Z,47.03
2023-01-06T13:14:53.995Z,47.28
2023-01-06T13:17:04.489Z,46.65
2023-01-06T13:19:09.014Z,46.68
2023-01-06T13:21:18.056Z,47.17
2023-01-06T13:23:39.918Z,47.12
2023-01-06T13:26:00.391Z,46.78
2023-01-06T13:28:15.785Z,46.81
2023-01-06T13:30:20.212Z,46.73
2023-01-06T13:32:54.298Z,46.50
2023-01-06T13:35:04.646Z,46.58
2023-01-06T13:37:21.315Z,46.75
2023-01-06T13:39:23.486Z,46.58
2023-01-06T13:41:26.512Z,46.45
2023-01-06T13:43:31.093Z,46.62
2023-01-06T13:45:42.930Z,46.94
2023-01-06T13:47:44.826Z,46.45
2023-01-06T13:49:46.425Z,46.66
2023-01-06T13:51:48.012Z,46.72
2023-01-06T13:53:50.807Z,47.03
2023-01-06T13:56:10.889Z,47.07
2023-01-06T13:58:25.674Z,46.71
2023-01-06T14:00:28.184Z,46.56
2023-01-06T14:02:36.211Z,46.29
2023-01-06T14:04:42.973Z,46.48
2023-01-06T14:06:44.910Z,46.81
2023-01-06T14:08:57.251Z,46.82
2023-01-06T14:11:03.164Z,47.00
2023-01-06T14:13:05.441Z,46.97
2023-01-06T14:15:07.929Z,46.82
2023-01-06T14:17:28.166Z,47.09
2023-01-06T14:19:37.351Z,47.42
2023-01-06T14:21:38.814Z,47.90
2023-01-06T14:24:12.950Z,47.43
2023-01-06T14:26:14.713Z,61.52
2023-01-06T14:28:19.579Z,49.37
2023-01-06T14:30:21.476Z,47.36
2023-01-06T14:32:22.946Z,47.13
2023-01-06T14:34:24.499Z,47.34
2023-01-06T14:36:26.367Z,47.27
2023-01-06T14:38:30.099Z,47.44
2023-01-06T14:40:34.669Z,47.40
2023-01-06T14:42:39.639Z,47.37
2023-01-06T14:44:44.536Z,47.44
2023-01-06T14:46:49.073Z,47.07
2023-01-06T14:48:52.230Z,47.34
2023-01-06T14:50:56.505Z,47.44
2023-01-06T14:52:59.637Z,47.71
2023-01-06T14:55:01.833Z,47.33
2023-01-06T14:57:06.353Z,47.69
2023-01-06T14:59:12.812Z,47.60
2023-01-06T15:01:22.097Z,47.79
2023-01-06T15:03:24.350Z,47.58
2023-01-06T15:05:52.551Z,47.76
2023-01-06T15:07:58.234Z,48.61
2023-01-06T15:10:13.869Z,48.32
2023-01-06T15:12:25.579Z,48.71
2023-01-06T15:14:28.289Z,48.76
2023-01-06T15:16:34.965Z,48.50
2023-01-06T15:18:36.775Z,49.01
2023-01-06T15:20:42.020Z,48.37
2023-01-06T15:22:45.898Z,48.84
2023-01-06T15:24:47.485Z,48.88
2023-01-06T15:26:49.765Z,48.94
2023-01-06T15:29:04.852Z,49.03
2023-01-06T15:31:06.579Z,49.26
2023-01-06T15:33:09.311Z,49.00
2023-01-06T15:35:15.505Z,49.50
2023-01-06T15:37:21.083Z,49.49
2023-01-06T15:39:31.466Z,49.53
2023-01-06T15:41:33.070Z,49.49
2023-01-06T15:43:38.452Z,49.07
2023-01-06T15:45:40.088Z,49.16
2023-01-06T15:47:44.299Z,49.56
2023-01-06T15:49:48.329Z,49.47
2023-01-06T15:52:04.925Z,49.65
2023-01-06T15:54:06.726Z,49.78
2023-01-06T15:56:09.089Z,49.74
2023-01-06T15:58:16.686Z,49.33
2023-01-06T16:00:19.537Z,49.66
2023-01-06T16:02:21.351Z,49.81
2023-01-06T16:04:23.621Z,49.70
2023-01-06T16:06:25.327Z,49.90
2023-01-06T16:08:28.072Z,50.20
2023-01-06T16:10:34.050Z,50.27
2023-01-06T16:12:35.865Z,49.96
2023-01-06T16:14:45.672Z,49.58
2023-01-06T16:16:47.208Z,49.88
2023-01-06T16:18:48.781Z,49.67
2023-01-06T16:20:50.375Z,50.02
2023-01-06T16:22:52.480Z,49.85
2023-01-06T16:24:54.273Z,50.36
2023-01-06T16:27:00.093Z,50.23
2023-01-06T16:29:02.799Z,50.47
2023-01-06T16:31:05.520Z,50.49
2023-01-06T16:33:27.009Z,50.37
2023-01-06T16:35:29.557Z,50.88
2023-01-06T16:37:34.232Z,50.96
2023-01-06T16:39:35.852Z,50.31
2023-01-06T16:41:37.656Z,50.15
2023-01-06T16:43:39.191Z,49.96
2023-01-06T16:45:41.844Z,50.33
2023-01-06T16:47:43.492Z,50.01
2023-01-06T16:49:45.065Z,50.12
2023-01-06T16:51:46.747Z,50.18
2023-01-06T16:53:48.650Z,49.94
2023-01-06T16:55:51.093Z,50.47
2023-01-06T16:57:52.630Z,49.93
2023-01-06T16:59:54.228Z,50.57
2023-01-06T17:01:56.189Z,50.01
2023-01-06T17:03:59.212Z,50.40
2023-01-06T17:06:00.776Z,50.62
2023-01-06T17:08:03.009Z,50.57
2023-01-06T17:10:07.092Z,50.42
2023-01-06T17:12:12.484Z,50.86
2023-01-06T17:14:14.900Z,50.64
2023-01-06T17:16:17.720Z,50.84
2023-01-06T17:18:20.955Z,50.67
2023-01-06T17:20:22.692Z,50.65
2023-01-06T17:22:26.586Z,51.23
2023-01-06T17:24:28.227Z,50.58
2023-01-06T17:26:29.798Z,50.16
2023-01-06T17:28:31.530Z,50.54
2023-01-06T17:30:33.234Z,50.79
2023-01-06T17:32:38.521Z,50.96
2023-01-06T17:34:40.069Z,50.66
2023-01-06T17:36:42.395Z,50.83
2023-01-06T17:38:44.207Z,50.96
2023-01-06T17:40:45.869Z,50.81
2023-01-06T17:42:49.490Z,50.87
2023-01-06T17:44:55.164Z,50.49
2023-01-06T17:46:56.746Z,51.11
2023-01-06T17:49:03.396Z,50.65
2023-01-06T17:51:05.057Z,51.34
2023-01-06T17:53:38.893Z,50.66
2023-01-06T17:55:47.488Z,51.83
2023-01-06T17:57:48.984Z,51.63
2023-01-06T17:59:52.047Z,51.39
2023-01-06T18:01:53.700Z,51.03
2023-01-06T18:03:58.128Z,51.19
2023-01-06T18:06:01.083Z,51.53
2023-01-06T18:08:05.418Z,51.12
2023-01-06T18:10:09.682Z,51.14
2023-01-06T18:12:11.434Z,50.88
2023-01-06T18:14:21.202Z,51.28
2023-01-06T18:16:32.557Z,51.54
2023-01-06T18:18:36.278Z,51.54
2023-01-06T18:20:38.005Z,51.82
2023-01-06T18:22:40.696Z,51.87
2023-01-06T18:24:42.468Z,52.65
2023-01-06T18:26:49.155Z,51.79
2023-01-06T18:28:50.854Z,52.67
2023-01-06T18:30:55.447Z,52.41
2023-01-06T18:32:57.044Z,52.73
2023-01-06T18:34:59.758Z,52.53
2023-01-06T18:37:01.719Z,52.81
2023-01-06T18:39:03.490Z,53.07
2023-01-06T18:41:06.453Z,52.57
2023-01-06T18:43:20.314Z,53.17
2023-01-06T18:45:29.406Z,52.91
2023-01-06T18:47:31.431Z,52.99
2023-01-06T18:49:33.676Z,52.71
2023-01-06T18:51:35.208Z,53.02
2023-01-06T18:53:38.089Z,53.42
2023-01-06T18:55:41.903Z,53.55
2023-01-06T18:57:46.046Z,53.42
2023-01-06T18:59:47.634Z,53.30
2023-01-06T19:01:50.083Z,53.53
2023-01-06T19:03:58.131Z,53.17
2023-01-06T19:06:09.060Z,53.11
2023-01-06T19:08:11.569Z,53.44
2023-01-06T19:10:24.347Z,53.28
2023-01-06T19:12:32.891Z,52.59
2023-01-06T19:14:36.234Z,52.88
2023-01-06T19:16:39.184Z,52.72
2023-01-06T19:18:40.671Z,53.53
2023-01-06T19:20:42.490Z,53.24
2023-01-06T19:22:44.319Z,53.86
2023-01-06T19:24:47.670Z,53.76
2023-01-06T19:26:49.214Z,53.35
2023-01-06T19:28:52.137Z,53.09
2023-01-06T19:30:54.156Z,53.51
2023-01-06T19:32:58.090Z,53.70
2023-01-06T19:34:59.675Z,53.57
2023-01-06T19:37:01.241Z,54.13
2023-01-06T19:39:03.708Z,53.96
2023-01-06T19:41:07.862Z,54.24
2023-01-06T19:43:16.727Z,54.07
2023-01-06T19:45:36.253Z,53.43
2023-01-06T19:47:39.244Z,54.11
2023-01-06T19:49:41.069Z,53.68
2023-01-06T19:51:42.947Z,53.82
2023-01-06T19:53:45.336Z,53.73
2023-01-06T19:55:46.936Z,53.48
2023-01-06T19:57:52.926Z,54.07
2023-01-06T19:59:56.253Z,53.30
2023-01-06T20:01:59.909Z,54.57
2023-01-06T20:04:01.693Z,54.35
2023-01-06T20:06:03.699Z,54.30
2023-01-06T20:08:05.563Z,54.17
2023-01-06T20:10:07.218Z,53.52
2023-01-06T20:12:08.735Z,54.00
2023-01-06T20:14:10.378Z,54.43
2023-01-06T20:16:12.091Z,54.76
2023-01-06T20:18:13.964Z,54.98
2023-01-06T20:20:15.720Z,54.50
2023-01-06T20:22:17.294Z,53.94
2023-01-06T20:24:19.003Z,53.99
2023-01-06T20:26:20.697Z,54.52
2023-01-06T20:28:22.432Z,54.62
2023-01-06T20:30:24.004Z,54.48
2023-01-06T20:32:25.477Z,54.86
2023-01-06T20:34:26.988Z,54.71
2023-01-06T20:36:29.200Z,54.99
2023-01-06T20:38:30.850Z,55.04
2023-01-06T20:40:32.469Z,54.92
2023-01-06T20:42:34.181Z,54.81
2023-01-06T20:44:35.681Z,54.36
2023-01-06T20:46:37.183Z,54.59
2023-01-06T20:48:38.765Z,54.45
2023-01-06T20:50:42.109Z,55.04
2023-01-06T20:52:45.445Z,54.90
2023-01-06T20:54:47.059Z,55.65
2023-01-06T20:56:48.525Z,55.24
2023-01-06T20:58:50.331Z,55.37
2023-01-06T21:00:51.800Z,55.66
2023-01-06T21:02:53.537Z,55.74
2023-01-06T21:04:55.149Z,55.52
2023-01-06T21:06:56.732Z,55.10
2023-01-06T21:08:58.471Z,55.80
2023-01-06T21:11:00.007Z,55.45
2023-01-06T21:13:01.505Z,54.82
2023-01-06T21:15:03.336Z,55.01
2023-01-06T21:17:04.954Z,54.81
2023-01-06T21:19:06.491Z,54.96
2023-01-06T21:21:08.130Z,54.84
2023-01-06T21:23:10.264Z,54.88
2023-01-06T21:25:11.939Z,55.17
2023-01-06T21:27:13.587Z,54.77
2023-01-06T21:29:15.108Z,54.92
2023-01-06T21:31:16.665Z,55.69
2023-01-06T21:33:21.184Z,55.17
2023-01-06T21:35:23.147Z,55.30
2023-01-06T21:37:24.767Z,55.05
2023-01-06T21:39:27.044Z,55.17
2023-01-06T21:41:47.416Z,54.60
2023-01-06T21:43:48.950Z,54.62
2023-01-06T21:45:50.558Z,54.91
2023-01-06T21:47:52.110Z,54.58
2023-01-06T21:49:53.746Z,54.92
2023-01-06T21:51:55.260Z,54.77
2023-01-06T21:53:56.723Z,54.87
2023-01-06T21:55:58.562Z,55.00
2023-01-06T21:58:00.146Z,54.74
2023-01-06T22:00:01.622Z,55.08
2023-01-06T22:02:04.862Z,54.58
2023-01-06T22:04:06.850Z,54.60
2023-01-06T22:06:08.576Z,54.81
2023-01-06T22:08:10.141Z,54.62
2023-01-06T22:10:12.527Z,55.07
2023-01-06T22:12:14.718Z,55.02
2023-01-06T22:14:17.549Z,55.02
2023-01-06T22:16:19.272Z,54.95
2023-01-06T22:18:20.929Z,54.65
2023-01-06T22:20:22.614Z,54.63
2023-01-06T22:22:24.327Z,55.42
2023-01-06T22:24:25.868Z,55.96
2023-01-06T22:26:27.466Z,55.49
2023-01-06T22:28:29.303Z,55.12
2023-01-06T22:30:31.002Z,55.39
2023-01-06T22:32:32.772Z,55.35
2023-01-06T22:34:34.440Z,54.97
2023-01-06T22:36:36.029Z,55.97
2023-01-06T22:38:37.820Z,55.22
2023-01-06T22:40:39.639Z,55.30
2023-01-06T22:42:41.587Z,55.62
2023-01-06T22:44:43.216Z,55.61
2023-01-06T22:46:44.748Z,55.59
2023-01-06T22:48:46.655Z,55.71
2023-01-06T22:50:55.490Z,55.31
2023-01-06T22:52:57.016Z,55.60
2023-01-06T22:54:58.558Z,56.00
2023-01-06T22:57:00.015Z,55.70
2023-01-06T22:59:01.530Z,55.90
2023-01-06T23:01:04.894Z,55.77
2023-01-06T23:03:06.524Z,55.76
2023-01-06T23:05:08.620Z,55.95
2023-01-06T23:07:10.459Z,56.16
2023-01-06T23:09:12.005Z,55.83
2023-01-06T23:11:14.593Z,55.57
2023-01-06T23:13:16.166Z,55.85
2023-01-06T23:15:17.700Z,55.81
2023-01-06T23:17:19.409Z,55.65
2023-01-06T23:19:21.060Z,56.23
2023-01-06T23:21:23.105Z,56.15
2023-01-06T23:23:24.696Z,56.02
2023-01-06T23:25:26.289Z,55.82
2023-01-06T23:27:28.899Z,56.47
2023-01-06T23:29:32.716Z,55.51
2023-01-06T23:31:36.616Z,56.06
2023-01-06T23:33:42.438Z,57.08
2023-01-06T23:35:44.133Z,57.71
2023-01-06T23:37:45.812Z,58.53
2023-01-06T23:39:48.023Z,59.05
2023-01-06T23:41:49.568Z,59.14
2023-01-06T23:43:51.419Z,59.96
2023-01-06T23:45:52.976Z,60.47
2023-01-06T23:47:54.502Z,60.81
2023-01-06T23:49:56.077Z,61.33
2023-01-06T23:51:57.621Z,61.69
2023-01-06T23:53:59.562Z,61.84
2023-01-06T23:56:04.783Z,61.05
2023-01-06T23:58:06.358Z,60.90
